sensor_id;sensor_type;location;lat;lon;timestamp;P1;durP1;ratioP1;P2;durP2;ratioP2
7454;SDS011;3769;51.208;4.454;2023-04-06T00:04:42;21;;;13;;
7454;SDS011;3769;51.208;4.454;2023-04-06T00:09:41;18.3;;;12.1;;
7454;SDS011;3769;51.208;4.454;2023-04-06T00:14:42;21.4;;;13;;
7454;SDS011;3769;51.208;4.454;2023-04-06T00:19:41;23.1;;;12.2;;
7454;SDS011;3769;51.208;4.454;2023-04-06T00:24:41;19.5;;;12.1;;
7454;SDS011;3769;51.208;4.454;2023-04-06T00:29:43;18.5;;;11.8;;
7454;SDS011;3769;51.208;4.454;2023-04-06T00:34:41;20.4;;;12.2;;
7454;SDS011;3769;51.208;4.454;2023-04-06T00:39:42;23;;;11.5;;
7454;SDS011;3769;51.208;4.454;2023-04-06T00:44:41;21.9;;;11.6;;
7454;SDS011;3769;51.208;4.454;2023-04-06T00:49:42;21;;;11.8;;
7454;SDS011;3769;51.208;4.454;2023-04-06T00:54:41;21.7;;;12.1;;
7454;SDS011;3769;51.208;4.454;2023-04-06T00:59:42;21.5;;;12.3;;
7454;SDS011;3769;51.208;4.454;2023-04-06T01:04:42;21.5;;;12.3;;
7454;SDS011;3769;51.208;4.454;2023-04-06T01:09:42;19.9;;;11.8;;
7454;SDS011;3769;51.208;4.454;2023-04-06T01:14:41;22.3;;;12.3;;
7454;SDS011;3769;51.208;4.454;2023-04-06T01:19:41;19.7;;;11.1;;
7454;SDS011;3769;51.208;4.454;2023-04-06T01:24:41;18.1;;;11.1;;
7454;SDS011;3769;51.208;4.454;2023-04-06T01:29:41;17.2;;;10.3;;
7454;SDS011;3769;51.208;4.454;2023-04-06T01:34:41;19;;;10.9;;
7454;SDS011;3769;51.208;4.454;2023-04-06T01:39:42;18.4;;;11;;
7454;SDS011;3769;51.208;4.454;2023-04-06T01:44:41;19.2;;;11.1;;
7454;SDS011;3769;51.208;4.454;2023-04-06T01:49:41;17.4;;;10.4;;
7454;SDS011;3769;51.208;4.454;2023-04-06T01:54:42;17.4;;;10.4;;
7454;SDS011;3769;51.208;4.454;2023-04-06T01:59:42;17.6;;;10.5;;
7454;SDS011;3769;51.208;4.454;2023-04-06T02:04:41;16.7;;;10.5;;
7454;SDS011;3769;51.208;4.454;2023-04-06T02:09:41;15.9;;;10.9;;
7454;SDS011;3769;51.208;4.454;2023-04-06T02:14:42;16.5;;;10.4;;
7454;SDS011;3769;51.208;4.454;2023-04-06T02:19:41;19.4;;;10.8;;
7454;SDS011;3769;51.208;4.454;2023-04-06T02:24:42;17.4;;;10.5;;
7454;SDS011;3769;51.208;4.454;2023-04-06T02:29:41;15.4;;;9.9;;
7454;SDS011;3769;51.208;4.454;2023-04-06T02:34:42;16.9;;;10.2;;
7454;SDS011;3769;51.208;4.454;2023-04-06T02:39:41;15.1;;;9.6;;
7454;SDS011;3769;51.208;4.454;2023-04-06T02:44:42;18.1;;;10.9;;
7454;SDS011;3769;51.208;4.454;2023-04-06T02:49:41;15.6;;;10.1;;
7454;SDS011;3769;51.208;4.454;2023-04-06T02:54:41;16.8;;;10.4;;
7454;SDS011;3769;51.208;4.454;2023-04-06T02:59:42;19.3;;;11.1;;
7454;SDS011;3769;51.208;4.454;2023-04-06T03:04:42;20.2;;;11.3;;
7454;SDS011;3769;51.208;4.454;2023-04-06T03:09:41;17.7;;;10.5;;
7454;SDS011;3769;51.208;4.454;2023-04-06T03:14:42;18.2;;;10.8;;
7454;SDS011;3769;51.208;4.454;2023-04-06T03:19:41;17.5;;;9.9;;
7454;SDS011;3769;51.208;4.454;2023-04-06T03:24:41;15.6;;;9.9;;
7454;SDS011;3769;51.208;4.454;2023-04-06T03:29:41;16.3;;;10;;
7454;SDS011;3769;51.208;4.454;2023-04-06T03:34:42;16;;;10.4;;
7454;SDS011;3769;51.208;4.454;2023-04-06T03:39:41;16.8;;;9.8;;
7454;SDS011;3769;51.208;4.454;2023-04-06T03:44:41;17;;;9.6;;
7454;SDS011;3769;51.208;4.454;2023-04-06T03:49:41;16.7;;;9.8;;
7454;SDS011;3769;51.208;4.454;2023-04-06T03:54:42;20.5;;;10.3;;
7454;SDS011;3769;51.208;4.454;2023-04-06T03:59:41;16.9;;;10.6;;
7454;SDS011;3769;51.208;4.454;2023-04-06T04:04:41;15.5;;;9.7;;
7454;SDS011;3769;51.208;4.454;2023-04-06T04:09:41;17.1;;;9.6;;
7454;SDS011;3769;51.208;4.454;2023-04-06T04:14:42;15.6;;;9.6;;
7454;SDS011;3769;51.208;4.454;2023-04-06T04:19:41;13.8;;;9.2;;
7454;SDS011;3769;51.208;4.454;2023-04-06T04:24:42;20.7;;;10.2;;
7454;SDS011;3769;51.208;4.454;2023-04-06T04:29:42;18;;;10.5;;
7454;SDS011;3769;51.208;4.454;2023-04-06T04:34:42;17.6;;;9.9;;
7454;SDS011;3769;51.208;4.454;2023-04-06T04:39:41;18.6;;;9.8;;
7454;SDS011;3769;51.208;4.454;2023-04-06T04:44:42;16.9;;;9.9;;
7454;SDS011;3769;51.208;4.454;2023-04-06T04:49:41;19;;;10.4;;
7454;SDS011;3769;51.208;4.454;2023-04-06T04:54:42;19;;;10.7;;
7454;SDS011;3769;51.208;4.454;2023-04-06T04:59:42;18.5;;;10.2;;
7454;SDS011;3769;51.208;4.454;2023-04-06T05:04:42;15.6;;;10;;
7454;SDS011;3769;51.208;4.454;2023-04-06T05:09:42;18.7;;;10.8;;
7454;SDS011;3769;51.208;4.454;2023-04-06T05:14:42;22.7;;;11.5;;
7454;SDS011;3769;51.208;4.454;2023-04-06T05:19:42;18;;;10.7;;
7454;SDS011;3769;51.208;4.454;2023-04-06T05:24:42;30.5;;;11.7;;
7454;SDS011;3769;51.208;4.454;2023-04-06T05:29:41;20.8;;;11.1;;
7454;SDS011;3769;51.208;4.454;2023-04-06T05:34:42;20.5;;;11.2;;
7454;SDS011;3769;51.208;4.454;2023-04-06T05:39:42;17.8;;;11.1;;
7454;SDS011;3769;51.208;4.454;2023-04-06T05:44:42;18.2;;;10.5;;
7454;SDS011;3769;51.208;4.454;2023-04-06T05:49:42;20.1;;;12;;
7454;SDS011;3769;51.208;4.454;2023-04-06T05:54:42;20.5;;;11.6;;
7454;SDS011;3769;51.208;4.454;2023-04-06T05:59:42;19.5;;;11.8;;
7454;SDS011;3769;51.208;4.454;2023-04-06T06:04:42;24.4;;;13.6;;
7454;SDS011;3769;51.208;4.454;2023-04-06T06:09:42;19.6;;;12.4;;
7454;SDS011;3769;51.208;4.454;2023-04-06T06:14:42;22.3;;;12.9;;
7454;SDS011;3769;51.208;4.454;2023-04-06T06:19:42;21.3;;;13.1;;
7454;SDS011;3769;51.208;4.454;2023-04-06T06:24:42;22.8;;;14.1;;
7454;SDS011;3769;51.208;4.454;2023-04-06T06:29:42;25.9;;;14;;
7454;SDS011;3769;51.208;4.454;2023-04-06T06:34:42;25.4;;;14.6;;
7454;SDS011;3769;51.208;4.454;2023-04-06T06:39:42;22.8;;;14.8;;
7454;SDS011;3769;51.208;4.454;2023-04-06T06:44:42;21.9;;;15.1;;
7454;SDS011;3769;51.208;4.454;2023-04-06T06:49:42;23.6;;;15.3;;
7454;SDS011;3769;51.208;4.454;2023-04-06T06:54:42;23.5;;;15.2;;
7454;SDS011;3769;51.208;4.454;2023-04-06T06:59:42;28.2;;;15.3;;
7454;SDS011;3769;51.208;4.454;2023-04-06T07:04:42;24.6;;;14.8;;
7454;SDS011;3769;51.208;4.454;2023-04-06T07:09:42;24.6;;;15.2;;
7454;SDS011;3769;51.208;4.454;2023-04-06T07:14:42;22.6;;;13.8;;
7454;SDS011;3769;51.208;4.454;2023-04-06T07:19:42;20.3;;;14;;
7454;SDS011;3769;51.208;4.454;2023-04-06T07:24:42;22.3;;;15;;
7454;SDS011;3769;51.208;4.454;2023-04-06T07:29:42;24.9;;;14;;
7454;SDS011;3769;51.208;4.454;2023-04-06T07:34:42;23.8;;;14.2;;
7454;SDS011;3769;51.208;4.454;2023-04-06T07:39:42;22.4;;;14;;
7454;SDS011;3769;51.208;4.454;2023-04-06T07:44:41;18;;;12.1;;
7454;SDS011;3769;51.208;4.454;2023-04-06T07:49:41;21.1;;;11.8;;
7454;SDS011;3769;51.208;4.454;2023-04-06T07:54:42;19.1;;;12.7;;
7454;SDS011;3769;51.208;4.454;2023-04-06T07:59:42;21.6;;;11.4;;
7454;SDS011;3769;51.208;4.454;2023-04-06T08:04:42;17.4;;;11.1;;
7454;SDS011;3769;51.208;4.454;2023-04-06T08:09:42;18.8;;;10.8;;
7454;SDS011;3769;51.208;4.454;2023-04-06T08:14:42;19.3;;;11.4;;
7454;SDS011;3769;51.208;4.454;2023-04-06T08:19:42;16.2;;;10.7;;
7454;SDS011;3769;51.208;4.454;2023-04-06T08:24:42;14.2;;;9.9;;
7454;SDS011;3769;51.208;4.454;2023-04-06T08:29:42;13.7;;;9.4;;
7454;SDS011;3769;51.208;4.454;2023-04-06T08:34:42;12.7;;;8.8;;
7454;SDS011;3769;51.208;4.454;2023-04-06T08:39:42;12.8;;;9.2;;
7454;SDS011;3769;51.208;4.454;2023-04-06T08:44:42;15.1;;;8.8;;
7454;SDS011;3769;51.208;4.454;2023-04-06T08:49:42;12.8;;;8.7;;
7454;SDS011;3769;51.208;4.454;2023-04-06T08:54:42;16;;;8.9;;
7454;SDS011;3769;51.208;4.454;2023-04-06T08:59:42;12.9;;;8.1;;
7454;SDS011;3769;51.208;4.454;2023-04-06T09:04:42;13.8;;;8.4;;
7454;SDS011;3769;51.208;4.454;2023-04-06T09:09:42;12.9;;;7.3;;
7454;SDS011;3769;51.208;4.454;2023-04-06T09:14:42;11.4;;;6.6;;
7454;SDS011;3769;51.208;4.454;2023-04-06T09:19:45;10.6;;;6.2;;
7454;SDS011;3769;51.208;4.454;2023-04-06T09:24:43;7.7;;;6.1;;
7454;SDS011;3769;51.208;4.454;2023-04-06T09:29:42;8.7;;;5.6;;
7454;SDS011;3769;51.208;4.454;2023-04-06T09:34:42;7.6;;;5.5;;
7454;SDS011;3769;51.208;4.454;2023-04-06T09:39:42;7.7;;;5.7;;
7454;SDS011;3769;51.208;4.454;2023-04-06T09:44:42;10.8;;;6.7;;
7454;SDS011;3769;51.208;4.454;2023-04-06T09:49:42;10.7;;;6.7;;
7454;SDS011;3769;51.208;4.454;2023-04-06T09:54:42;9.1;;;6;;
7454;SDS011;3769;51.208;4.454;2023-04-06T10:00:14;9.1;;;6.7;;
7454;SDS011;3769;51.208;4.454;2023-04-06T10:04:43;11.6;;;7;;
7454;SDS011;3769;51.208;4.454;2023-04-06T10:09:42;10.8;;;6.8;;
7454;SDS011;3769;51.208;4.454;2023-04-06T10:14:42;10.3;;;7.6;;
7454;SDS011;3769;51.208;4.454;2023-04-06T10:19:55;11.2;;;7.4;;
7454;SDS011;3769;51.208;4.454;2023-04-06T10:24:42;13.3;;;7.7;;
7454;SDS011;3769;51.208;4.454;2023-04-06T10:29:43;14.5;;;8.5;;
7454;SDS011;3769;51.208;4.454;2023-04-06T10:34:42;12.3;;;8.4;;
7454;SDS011;3769;51.208;4.454;2023-04-06T10:39:45;12.9;;;8.7;;
7454;SDS011;3769;51.208;4.454;2023-04-06T10:44:42;13.9;;;8.7;;
7454;SDS011;3769;51.208;4.454;2023-04-06T10:49:42;14.2;;;8.7;;
7454;SDS011;3769;51.208;4.454;2023-04-06T10:54:42;15;;;9.1;;
7454;SDS011;3769;51.208;4.454;2023-04-06T10:59:44;13;;;8.7;;
7454;SDS011;3769;51.208;4.454;2023-04-06T11:04:42;15.6;;;9.7;;
7454;SDS011;3769;51.208;4.454;2023-04-06T11:09:42;12.9;;;9.6;;
7454;SDS011;3769;51.208;4.454;2023-04-06T11:14:51;12.1;;;9.1;;
7454;SDS011;3769;51.208;4.454;2023-04-06T11:19:42;13.7;;;9.3;;
7454;SDS011;3769;51.208;4.454;2023-04-06T11:24:42;13.2;;;9.4;;
7454;SDS011;3769;51.208;4.454;2023-04-06T11:29:42;16.4;;;10.2;;
7454;SDS011;3769;51.208;4.454;2023-04-06T11:34:42;15.2;;;10.1;;
7454;SDS011;3769;51.208;4.454;2023-04-06T11:39:47;14.6;;;9.9;;
7454;SDS011;3769;51.208;4.454;2023-04-06T11:44:43;13.4;;;9.7;;
7454;SDS011;3769;51.208;4.454;2023-04-06T11:49:42;17.2;;;11.2;;
7454;SDS011;3769;51.208;4.454;2023-04-06T11:54:42;16.2;;;9.6;;
7454;SDS011;3769;51.208;4.454;2023-04-06T11:59:42;17;;;11;;
7454;SDS011;3769;51.208;4.454;2023-04-06T12:04:42;14.3;;;11;;
7454;SDS011;3769;51.208;4.454;2023-04-06T12:09:42;15.3;;;11.6;;
7454;SDS011;3769;51.208;4.454;2023-04-06T12:14:42;16.2;;;10.8;;
7454;SDS011;3769;51.208;4.454;2023-04-06T12:19:42;16.6;;;11.2;;
7454;SDS011;3769;51.208;4.454;2023-04-06T12:24:42;15.5;;;10.9;;
7454;SDS011;3769;51.208;4.454;2023-04-06T12:29:42;15.6;;;10.8;;
7454;SDS011;3769;51.208;4.454;2023-04-06T12:34:42;14.4;;;10.7;;
7454;SDS011;3769;51.208;4.454;2023-04-06T12:39:42;15.2;;;10.8;;
7454;SDS011;3769;51.208;4.454;2023-04-06T12:44:42;15.3;;;10.5;;
7454;SDS011;3769;51.208;4.454;2023-04-06T12:49:42;13.4;;;10.1;;
7454;SDS011;3769;51.208;4.454;2023-04-06T12:54:42;14.5;;;10.5;;
7454;SDS011;3769;51.208;4.454;2023-04-06T12:59:43;12.4;;;9.5;;
7454;SDS011;3769;51.208;4.454;2023-04-06T13:04:42;14.6;;;9.4;;
7454;SDS011;3769;51.208;4.454;2023-04-06T13:09:42;11.9;;;9.6;;
7454;SDS011;3769;51.208;4.454;2023-04-06T13:14:42;14;;;10.3;;
7454;SDS011;3769;51.208;4.454;2023-04-06T13:19:42;14.3;;;9.5;;
7454;SDS011;3769;51.208;4.454;2023-04-06T13:24:42;12;;;9;;
7454;SDS011;3769;51.208;4.454;2023-04-06T13:29:42;13.4;;;9.1;;
7454;SDS011;3769;51.208;4.454;2023-04-06T13:34:42;9.7;;;8.1;;
7454;SDS011;3769;51.208;4.454;2023-04-06T13:39:42;11.1;;;8.7;;
7454;SDS011;3769;51.208;4.454;2023-04-06T13:44:42;11.2;;;8.8;;
7454;SDS011;3769;51.208;4.454;2023-04-06T13:49:42;12.6;;;9.2;;
7454;SDS011;3769;51.208;4.454;2023-04-06T13:54:42;12.9;;;9.6;;
7454;SDS011;3769;51.208;4.454;2023-04-06T13:59:42;11.7;;;9.8;;
7454;SDS011;3769;51.208;4.454;2023-04-06T14:04:42;12.2;;;10.1;;
7454;SDS011;3769;51.208;4.454;2023-04-06T14:09:42;12.7;;;10.2;;
7454;SDS011;3769;51.208;4.454;2023-04-06T14:14:42;13.9;;;11.2;;
7454;SDS011;3769;51.208;4.454;2023-04-06T14:19:42;13.7;;;10.7;;
7454;SDS011;3769;51.208;4.454;2023-04-06T14:24:42;16.2;;;11.7;;
7454;SDS011;3769;51.208;4.454;2023-04-06T14:29:42;15.3;;;11.7;;
7454;SDS011;3769;51.208;4.454;2023-04-06T14:34:42;16.6;;;12.4;;
7454;SDS011;3769;51.208;4.454;2023-04-06T14:39:42;19.1;;;12.9;;
7454;SDS011;3769;51.208;4.454;2023-04-06T14:44:42;17.2;;;12.8;;
7454;SDS011;3769;51.208;4.454;2023-04-06T14:49:42;19.1;;;12.9;;
7454;SDS011;3769;51.208;4.454;2023-04-06T14:54:42;17.2;;;12.8;;
7454;SDS011;3769;51.208;4.454;2023-04-06T14:59:42;17;;;12.3;;
7454;SDS011;3769;51.208;4.454;2023-04-06T15:04:42;16.5;;;13;;
7454;SDS011;3769;51.208;4.454;2023-04-06T15:09:42;17;;;12.9;;
7454;SDS011;3769;51.208;4.454;2023-04-06T15:14:42;19.4;;;14;;
7454;SDS011;3769;51.208;4.454;2023-04-06T15:19:42;16.3;;;13.3;;
7454;SDS011;3769;51.208;4.454;2023-04-06T15:24:42;16.5;;;13.3;;
7454;SDS011;3769;51.208;4.454;2023-04-06T15:29:42;18.5;;;13.8;;
7454;SDS011;3769;51.208;4.454;2023-04-06T15:34:42;17.6;;;13.9;;
7454;SDS011;3769;51.208;4.454;2023-04-06T15:39:42;20.9;;;14.3;;
7454;SDS011;3769;51.208;4.454;2023-04-06T15:44:42;19.9;;;13.9;;
7454;SDS011;3769;51.208;4.454;2023-04-06T15:49:42;20.9;;;14.8;;
7454;SDS011;3769;51.208;4.454;2023-04-06T15:54:42;19.9;;;15.1;;
7454;SDS011;3769;51.208;4.454;2023-04-06T15:59:42;20.5;;;15.1;;
7454;SDS011;3769;51.208;4.454;2023-04-06T16:04:42;22.9;;;15.2;;
7454;SDS011;3769;51.208;4.454;2023-04-06T16:09:42;24.4;;;15.3;;
7454;SDS011;3769;51.208;4.454;2023-04-06T16:14:42;21.8;;;14.9;;
7454;SDS011;3769;51.208;4.454;2023-04-06T16:19:42;24.4;;;16.1;;
7454;SDS011;3769;51.208;4.454;2023-04-06T16:24:42;23.6;;;15.3;;
7454;SDS011;3769;51.208;4.454;2023-04-06T16:29:42;20.1;;;14.7;;
7454;SDS011;3769;51.208;4.454;2023-04-06T16:34:42;21.4;;;15.7;;
7454;SDS011;3769;51.208;4.454;2023-04-06T16:39:42;26.8;;;16.2;;
7454;SDS011;3769;51.208;4.454;2023-04-06T16:44:42;26.8;;;16.3;;
7454;SDS011;3769;51.208;4.454;2023-04-06T16:49:42;26.5;;;17.8;;
7454;SDS011;3769;51.208;4.454;2023-04-06T16:54:42;26.8;;;17.4;;
7454;SDS011;3769;51.208;4.454;2023-04-06T16:59:42;25.3;;;16.4;;
7454;SDS011;3769;51.208;4.454;2023-04-06T17:04:42;30.6;;;17.4;;
7454;SDS011;3769;51.208;4.454;2023-04-06T17:09:42;25.6;;;15.6;;
7454;SDS011;3769;51.208;4.454;2023-04-06T17:14:42;26.9;;;15.1;;
7454;SDS011;3769;51.208;4.454;2023-04-06T17:19:42;21.9;;;15.1;;
7454;SDS011;3769;51.208;4.454;2023-04-06T17:24:42;25.8;;;14.8;;
7454;SDS011;3769;51.208;4.454;2023-04-06T17:29:42;24.9;;;15.6;;
7454;SDS011;3769;51.208;4.454;2023-04-06T17:34:42;21.7;;;15;;
7454;SDS011;3769;51.208;4.454;2023-04-06T17:39:42;22.8;;;15.3;;
7454;SDS011;3769;51.208;4.454;2023-04-06T17:44:42;25;;;16.2;;
7454;SDS011;3769;51.208;4.454;2023-04-06T17:49:42;25.7;;;15.4;;
7454;SDS011;3769;51.208;4.454;2023-04-06T17:54:42;28.4;;;15.1;;
7454;SDS011;3769;51.208;4.454;2023-04-06T17:59:42;27.9;;;15.2;;
7454;SDS011;3769;51.208;4.454;2023-04-06T18:04:42;26.9;;;15.1;;
7454;SDS011;3769;51.208;4.454;2023-04-06T18:09:42;28;;;13.4;;
7454;SDS011;3769;51.208;4.454;2023-04-06T18:14:42;26.9;;;13;;
7454;SDS011;3769;51.208;4.454;2023-04-06T18:19:42;27.9;;;12.8;;
7454;SDS011;3769;51.208;4.454;2023-04-06T18:24:42;23.4;;;13;;
7454;SDS011;3769;51.208;4.454;2023-04-06T18:29:42;26.2;;;13.2;;
7454;SDS011;3769;51.208;4.454;2023-04-06T18:34:42;30.9;;;14;;
7454;SDS011;3769;51.208;4.454;2023-04-06T18:39:42;28.4;;;14;;
7454;SDS011;3769;51.208;4.454;2023-04-06T18:44:42;77;;;50.8;;
7454;SDS011;3769;51.208;4.454;2023-04-06T18:49:42;27.5;;;13.6;;
7454;SDS011;3769;51.208;4.454;2023-04-06T18:54:42;28;;;14.6;;
7454;SDS011;3769;51.208;4.454;2023-04-06T18:59:42;27.5;;;14.8;;
7454;SDS011;3769;51.208;4.454;2023-04-06T19:04:42;24.2;;;13.1;;
7454;SDS011;3769;51.208;4.454;2023-04-06T19:09:42;20.5;;;13.4;;
7454;SDS011;3769;51.208;4.454;2023-04-06T19:14:42;23.4;;;13.8;;
7454;SDS011;3769;51.208;4.454;2023-04-06T19:19:42;20.8;;;11.6;;
7454;SDS011;3769;51.208;4.454;2023-04-06T19:24:42;16.9;;;8.5;;
7454;SDS011;3769;51.208;4.454;2023-04-06T19:29:42;15.5;;;7.8;;
7454;SDS011;3769;51.208;4.454;2023-04-06T19:34:42;18.3;;;7.8;;
7454;SDS011;3769;51.208;4.454;2023-04-06T19:39:42;19.1;;;8.2;;
7454;SDS011;3769;51.208;4.454;2023-04-06T19:44:42;23.6;;;11.7;;
7454;SDS011;3769;51.208;4.454;2023-04-06T19:49:42;28.1;;;14.2;;
7454;SDS011;3769;51.208;4.454;2023-04-06T19:54:42;30.8;;;14.1;;
7454;SDS011;3769;51.208;4.454;2023-04-06T19:59:42;28;;;14.6;;
7454;SDS011;3769;51.208;4.454;2023-04-06T20:04:42;28.8;;;15.5;;
7454;SDS011;3769;51.208;4.454;2023-04-06T20:09:42;32.2;;;15.1;;
7454;SDS011;3769;51.208;4.454;2023-04-06T20:14:42;27.2;;;15.4;;
7454;SDS011;3769;51.208;4.454;2023-04-06T20:19:42;27.3;;;13.9;;
7454;SDS011;3769;51.208;4.454;2023-04-06T20:24:42;33;;;15.1;;
7454;SDS011;3769;51.208;4.454;2023-04-06T20:29:42;34.9;;;15.1;;
7454;SDS011;3769;51.208;4.454;2023-04-06T20:34:42;28;;;15.1;;
7454;SDS011;3769;51.208;4.454;2023-04-06T20:39:42;30.2;;;14.5;;
7454;SDS011;3769;51.208;4.454;2023-04-06T20:44:42;30.3;;;14;;
7454;SDS011;3769;51.208;4.454;2023-04-06T20:49:42;25.2;;;13;;
7454;SDS011;3769;51.208;4.454;2023-04-06T20:54:42;24.7;;;13.1;;
7454;SDS011;3769;51.208;4.454;2023-04-06T20:59:42;27.5;;;13.2;;
7454;SDS011;3769;51.208;4.454;2023-04-06T21:04:42;22.5;;;13.5;;
7454;SDS011;3769;51.208;4.454;2023-04-06T21:09:42;27.8;;;13.2;;
7454;SDS011;3769;51.208;4.454;2023-04-06T21:14:42;25.9;;;12.5;;
7454;SDS011;3769;51.208;4.454;2023-04-06T21:19:42;28.8;;;13.9;;
7454;SDS011;3769;51.208;4.454;2023-04-06T21:24:42;26.6;;;13.3;;
7454;SDS011;3769;51.208;4.454;2023-04-06T21:29:42;24.5;;;13;;
7454;SDS011;3769;51.208;4.454;2023-04-06T21:34:42;28.9;;;14;;
7454;SDS011;3769;51.208;4.454;2023-04-06T21:39:42;24.2;;;14.2;;
7454;SDS011;3769;51.208;4.454;2023-04-06T21:44:42;26;;;14.4;;
7454;SDS011;3769;51.208;4.454;2023-04-06T21:49:42;26.7;;;14.2;;
7454;SDS011;3769;51.208;4.454;2023-04-06T21:54:42;27.7;;;14.7;;
7454;SDS011;3769;51.208;4.454;2023-04-06T21:59:42;27.9;;;14.4;;
7454;SDS011;3769;51.208;4.454;2023-04-06T22:04:42;27.7;;;14;;
7454;SDS011;3769;51.208;4.454;2023-04-06T22:09:42;35.1;;;14.8;;
7454;SDS011;3769;51.208;4.454;2023-04-06T22:14:42;25;;;14;;
7454;SDS011;3769;51.208;4.454;2023-04-06T22:19:42;26.5;;;13;;
7454;SDS011;3769;51.208;4.454;2023-04-06T22:24:42;30.7;;;13.2;;
7454;SDS011;3769;51.208;4.454;2023-04-06T22:29:42;31.2;;;13.3;;
7454;SDS011;3769;51.208;4.454;2023-04-06T22:34:43;29.8;;;13.6;;
7454;SDS011;3769;51.208;4.454;2023-04-06T22:39:42;27.7;;;12.4;;
7454;SDS011;3769;51.208;4.454;2023-04-06T22:44:42;29.2;;;12.4;;
7454;SDS011;3769;51.208;4.454;2023-04-06T22:49:42;29.8;;;11.5;;
7454;SDS011;3769;51.208;4.454;2023-04-06T22:54:42;32.2;;;12.2;;
7454;SDS011;3769;51.208;4.454;2023-04-06T22:59:42;27.2;;;11.7;;
7454;SDS011;3769;51.208;4.454;2023-04-06T23:04:42;24.4;;;11.5;;
7454;SDS011;3769;51.208;4.454;2023-04-06T23:09:42;19;;;9.4;;
7454;SDS011;3769;51.208;4.454;2023-04-06T23:14:42;22.6;;;9.1;;
7454;SDS011;3769;51.208;4.454;2023-04-06T23:19:42;20.2;;;9.4;;
7454;SDS011;3769;51.208;4.454;2023-04-06T23:24:42;18.3;;;9.3;;
7454;SDS011;3769;51.208;4.454;2023-04-06T23:29:42;19;;;8.6;;
7454;SDS011;3769;51.208;4.454;2023-04-06T23:34:42;20;;;9.6;;
7454;SDS011;3769;51.208;4.454;2023-04-06T23:39:42;17.9;;;9.1;;
7454;SDS011;3769;51.208;4.454;2023-04-06T23:44:42;16.2;;;8.8;;
7454;SDS011;3769;51.208;4.454;2023-04-06T23:49:42;14.4;;;8.3;;
7454;SDS011;3769;51.208;4.454;2023-04-06T23:54:42;14.4;;;8.5;;
7454;SDS011;3769;51.208;4.454;2023-04-06T23:59:42;14.8;;;8.3;;
